Time;durP1;ratioP1;P1;durP2;ratioP2;P2;SDS_P1;SDS_P2;PMS_P1;PMS_P2;Temp;Humidity;BMP_temperature;BMP_pressure;BME280_temperature;BME280_humidity;BME280_pressure;Samples;Min_cycle;Max_cycle;Signal;HPM_P1;HPM_P2
2020/01/29 00:00:28;;;;;;;2.35;1.4;;;;;;;1.56;84.68359;94065.55;;;;
2020/01/29 00:01:29;;;;;;;2.35;1.4;;;;;;;1.56;84.68359;94065.55;;;;
2020/01/29 00:02:29;;;;;;;2.35;1.4;;;;;;;1.56;84.68359;94065.55;;;;
2020/01/29 00:03:30;;;;;;;2.35;1.4;;;;;;;1.56;84.68359;94065.55;;;;
2020/01/29 00:04:30;;;;;;;2.35;1.4;;;;;;;1.56;84.68359;94065.55;;;;
2020/01/29 00:05:31;;;;;;;4.550001;1.55;;;;;;;1.71;84.8457;94038.28;;;;
2020/01/29 00:06:31;;;;;;;4.550001;1.55;;;;;;;1.71;84.8457;94038.28;;;;
2020/01/29 00:07:31;;;;;;;4.550001;1.55;;;;;;;1.71;84.8457;94038.28;;;;
2020/01/29 00:08:32;;;;;;;4.550001;1.55;;;;;;;1.71;84.8457;94038.28;;;;
2020/01/29 00:09:32;;;;;;;4.550001;1.55;;;;;;;1.71;84.8457;94038.28;;;;
2020/01/29 00:10:33;;;;;;;4.550001;1.55;;;;;;;1.71;84.8457;94038.28;;;;
2020/01/29 00:11:33;;;;;;;4.550001;1.55;;;;;;;1.71;84.8457;94038.28;;;;
2020/01/29 00:12:34;;;;;;;4.550001;1.55;;;;;;;1.71;84.8457;94038.28;;;;
2020/01/29 00:13:34;;;;;;;4.550001;1.55;;;;;;;1.71;84.8457;94038.28;;;;
2020/01/29 00:14:35;;;;;;;4.550001;1.55;;;;;;;1.71;84.8457;94038.28;;;;
2020/01/29 00:15:41;;;;;;;4.550001;1.55;;;;;;;1.71;84.8457;94038.28;;;;
2020/01/29 00:17:54;;;;;;;5.099999;1.7;;;;;;;1.78;84.69531;94028.28;;;;
2020/01/29 00:19:17;;;;;;;5.099999;1.7;;;;;;;1.78;84.69531;94028.28;;;;
2020/01/29 00:20:54;;;;;;;5.099999;1.7;;;;;;;1.78;84.69531;94028.28;;;;
2020/01/29 00:22:03;;;;;;;5.099999;1.7;;;;;;;1.78;84.69531;94028.28;;;;
2020/01/29 00:23:08;;;;;;;5.099999;1.7;;;;;;;1.78;84.69531;94028.28;;;;
2020/01/29 00:24:09;;;;;;;5.099999;1.7;;;;;;;1.78;84.69531;94028.28;;;;
2020/01/29 00:25:09;;;;;;;5.099999;1.7;;;;;;;1.78;84.69531;94028.28;;;;
2020/01/29 00:26:10;;;;;;;5.099999;1.7;;;;;;;1.78;84.69531;94028.28;;;;
2020/01/29 00:27:10;;;;;;;5.55;1.6;;;;;;;1.75;84.66699;94015.41;;;;
2020/01/29 00:28:11;;;;;;;5.55;1.6;;;;;;;1.75;84.66699;94015.41;;;;
2020/01/29 00:29:11;;;;;;;5.55;1.6;;;;;;;1.75;84.66699;94015.41;;;;
2020/01/29 00:30:12;;;;;;;5.55;1.6;;;;;;;1.75;84.66699;94015.41;;;;
2020/01/29 00:31:12;;;;;;;5.55;1.6;;;;;;;1.75;84.66699;94015.41;;;;
2020/01/29 00:32:13;;;;;;;5.55;1.6;;;;;;;1.75;84.66699;94015.41;;;;
2020/01/29 00:33:13;;;;;;;5.55;1.6;;;;;;;1.75;84.66699;94015.41;;;;
2020/01/29 00:34:14;;;;;;;5.55;1.6;;;;;;;1.75;84.66699;94015.41;;;;
2020/01/29 00:35:14;;;;;;;5.55;1.6;;;;;;;1.75;84.66699;94015.41;;;;
2020/01/29 00:36:15;;;;;;;5.55;1.6;;;;;;;1.75;84.66699;94015.41;;;;
2020/01/29 00:37:15;;;;;;;3.45;1.45;;;;;;;1.84;84.86328;93995.51;;;;
2020/01/29 00:38:15;;;;;;;3.45;1.45;;;;;;;1.84;84.86328;93995.51;;;;
2020/01/29 00:39:16;;;;;;;3.45;1.45;;;;;;;1.84;84.86328;93995.51;;;;
2020/01/29 00:40:16;;;;;;;3.45;1.45;;;;;;;1.84;84.86328;93995.51;;;;
2020/01/29 00:41:17;;;;;;;3.45;1.45;;;;;;;1.84;84.86328;93995.51;;;;
2020/01/29 00:42:18;;;;;;;3.45;1.45;;;;;;;1.84;84.86328;93995.51;;;;
2020/01/29 00:43:18;;;;;;;3.45;1.45;;;;;;;1.84;84.86328;93995.51;;;;
2020/01/29 00:44:18;;;;;;;3.45;1.45;;;;;;;1.84;84.86328;93995.51;;;;
2020/01/29 00:45:19;;;;;;;3.45;1.45;;;;;;;1.84;84.86328;93995.51;;;;
2020/01/29 00:46:20;;;;;;;3.45;1.45;;;;;;;1.84;84.86328;93995.51;;;;
2020/01/29 00:47:20;;;;;;;3.45;1.45;;;;;;;1.84;84.86328;93995.51;;;;
2020/01/29 00:48:20;;;;;;;3.8;1.4;;;;;;;1.89;84.68457;93991.27;;;;
2020/01/29 00:49:21;;;;;;;3.8;1.4;;;;;;;1.89;84.68457;93991.27;;;;
2020/01/29 00:50:21;;;;;;;3.8;1.4;;;;;;;1.89;84.68457;93991.27;;;;
2020/01/29 00:51:22;;;;;;;3.8;1.4;;;;;;;1.89;84.68457;93991.27;;;;
2020/01/29 00:52:22;;;;;;;3.8;1.4;;;;;;;1.89;84.68457;93991.27;;;;
2020/01/29 00:53:23;;;;;;;3.8;1.4;;;;;;;1.89;84.68457;93991.27;;;;
2020/01/29 00:54:23;;;;;;;3.8;1.4;;;;;;;1.89;84.68457;93991.27;;;;
2020/01/29 00:55:23;;;;;;;3.8;1.4;;;;;;;1.89;84.68457;93991.27;;;;
2020/01/29 00:56:24;;;;;;;3.8;1.4;;;;;;;1.89;84.68457;93991.27;;;;
2020/01/29 00:57:24;;;;;;;3.8;1.4;;;;;;;1.89;84.68457;93991.27;;;;
2020/01/29 00:58:25;;;;;;;3;1.5;;;;;;;2.01;84.625;94000.73;;;;
2020/01/29 00:59:25;;;;;;;3;1.5;;;;;;;2.01;84.625;94000.73;;;;
2020/01/29 01:00:34;;;;;;;3;1.5;;;;;;;2.01;84.625;94000.73;;;;
2020/01/29 01:01:39;;;;;;;3;1.5;;;;;;;2.01;84.625;94000.73;;;;
2020/01/29 01:02:40;;;;;;;3;1.5;;;;;;;2.01;84.625;94000.73;;;;
2020/01/29 01:03:40;;;;;;;3;1.5;;;;;;;2.01;84.625;94000.73;;;;
2020/01/29 01:04:41;;;;;;;3;1.5;;;;;;;2.01;84.625;94000.73;;;;
2020/01/29 01:05:41;;;;;;;3;1.5;;;;;;;2.01;84.625;94000.73;;;;
2020/01/29 01:06:42;;;;;;;3;1.5;;;;;;;2.01;84.625;94000.73;;;;
2020/01/29 01:07:42;;;;;;;3;1.5;;;;;;;2.01;84.625;94000.73;;;;
2020/01/29 01:08:43;;;;;;;3;1.5;;;;;;;2.01;84.625;94000.73;;;;
2020/01/29 01:09:43;;;;;;;3.6;1.5;;;;;;;1.98;84.9541;94005.95;;;;
2020/01/29 01:10:44;;;;;;;3.6;1.5;;;;;;;1.98;84.9541;94005.95;;;;
2020/01/29 01:11:44;;;;;;;3.6;1.5;;;;;;;1.98;84.9541;94005.95;;;;
2020/01/29 01:12:44;;;;;;;3.6;1.5;;;;;;;1.98;84.9541;94005.95;;;;
2020/01/29 01:13:46;;;;;;;3.6;1.5;;;;;;;1.98;84.9541;94005.95;;;;
2020/01/29 01:14:51;;;;;;;3.6;1.5;;;;;;;1.98;84.9541;94005.95;;;;
2020/01/29 01:15:59;;;;;;;3.6;1.5;;;;;;;1.98;84.9541;94005.95;;;;
2020/01/29 01:17:06;;;;;;;3.6;1.5;;;;;;;1.98;84.9541;94005.95;;;;
2020/01/29 01:18:12;;;;;;;3.6;1.5;;;;;;;1.98;84.9541;94005.95;;;;
2020/01/29 01:19:13;;;;;;;3.6;1.5;;;;;;;1.98;84.9541;94005.95;;;;
2020/01/29 01:20:13;;;;;;;3.35;1.6;;;;;;;1.92;85.44434;93997.92;;;;
2020/01/29 01:21:16;;;;;;;3.35;1.6;;;;;;;1.92;85.44434;93997.92;;;;
2020/01/29 01:22:23;;;;;;;3.35;1.6;;;;;;;1.92;85.44434;93997.92;;;;
2020/01/29 01:23:23;;;;;;;3.35;1.6;;;;;;;1.92;85.44434;93997.92;;;;
2020/01/29 01:24:24;;;;;;;3.35;1.6;;;;;;;1.92;85.44434;93997.92;;;;
2020/01/29 01:25:24;;;;;;;3.35;1.6;;;;;;;1.92;85.44434;93997.92;;;;
2020/01/29 01:26:31;;;;;;;3.35;1.6;;;;;;;1.92;85.44434;93997.92;;;;
2020/01/29 01:27:32;;;;;;;3.35;1.6;;;;;;;1.92;85.44434;93997.92;;;;
2020/01/29 01:28:35;;;;;;;3.35;1.6;;;;;;;1.92;85.44434;93997.92;;;;
2020/01/29 01:29:39;;;;;;;3.35;1.6;;;;;;;1.92;85.44434;93997.92;;;;
2020/01/29 01:30:42;;;;;;;2.25;1.3;;;;;;;1.82;85.95508;93996.36;;;;
2020/01/29 01:31:43;;;;;;;2.25;1.3;;;;;;;1.82;85.95508;93996.36;;;;
2020/01/29 01:32:43;;;;;;;2.25;1.3;;;;;;;1.82;85.95508;93996.36;;;;
2020/01/29 01:33:44;;;;;;;2.25;1.3;;;;;;;1.82;85.95508;93996.36;;;;
2020/01/29 01:34:44;;;;;;;2.25;1.3;;;;;;;1.82;85.95508;93996.36;;;;
2020/01/29 01:35:45;;;;;;;2.25;1.3;;;;;;;1.82;85.95508;93996.36;;;;
2020/01/29 01:36:45;;;;;;;2.25;1.3;;;;;;;1.82;85.95508;93996.36;;;;
2020/01/29 01:37:46;;;;;;;2.25;1.3;;;;;;;1.82;85.95508;93996.36;;;;
2020/01/29 01:38:47;;;;;;;2.25;1.3;;;;;;;1.82;85.95508;93996.36;;;;
2020/01/29 01:39:47;;;;;;;2.25;1.3;;;;;;;1.82;85.95508;93996.36;;;;
2020/01/29 01:40:48;;;;;;;2.45;1.2;;;;;;;1.78;86.66797;93953.91;;;;
2020/01/29 01:41:48;;;;;;;2.45;1.2;;;;;;;1.78;86.66797;93953.91;;;;
2020/01/29 01:42:49;;;;;;;2.45;1.2;;;;;;;1.78;86.66797;93953.91;;;;
2020/01/29 01:43:49;;;;;;;2.45;1.2;;;;;;;1.78;86.66797;93953.91;;;;
2020/01/29 01:44:50;;;;;;;2.45;1.2;;;;;;;1.78;86.66797;93953.91;;;;
2020/01/29 01:45:50;;;;;;;2.45;1.2;;;;;;;1.78;86.66797;93953.91;;;;
2020/01/29 01:46:51;;;;;;;2.45;1.2;;;;;;;1.78;86.66797;93953.91;;;;
2020/01/29 01:47:51;;;;;;;2.45;1.2;;;;;;;1.78;86.66797;93953.91;;;;
2020/01/29 01:48:52;;;;;;;2.45;1.2;;;;;;;1.78;86.66797;93953.91;;;;
2020/01/29 01:49:53;;;;;;;2.45;1.2;;;;;;;1.78;86.66797;93953.91;;;;
2020/01/29 01:50:53;;;;;;;2.45;1.2;;;;;;;1.78;86.66797;93953.91;;;;
2020/01/29 01:51:54;;;;;;;3.05;1.2;;;;;;;1.63;86.96289;93971.08;;;;
2020/01/29 01:52:54;;;;;;;3.05;1.2;;;;;;;1.63;86.96289;93971.08;;;;
2020/01/29 01:53:55;;;;;;;3.05;1.2;;;;;;;1.63;86.96289;93971.08;;;;
2020/01/29 01:54:55;;;;;;;3.05;1.2;;;;;;;1.63;86.96289;93971.08;;;;
2020/01/29 01:55:56;;;;;;;3.05;1.2;;;;;;;1.63;86.96289;93971.08;;;;
2020/01/29 01:56:56;;;;;;;3.05;1.2;;;;;;;1.63;86.96289;93971.08;;;;
2020/01/29 01:57:56;;;;;;;3.05;1.2;;;;;;;1.63;86.96289;93971.08;;;;
2020/01/29 01:58:57;;;;;;;3.05;1.2;;;;;;;1.63;86.96289;93971.08;;;;
2020/01/29 01:59:57;;;;;;;3.05;1.2;;;;;;;1.63;86.96289;93971.08;;;;
2020/01/29 02:00:58;;;;;;;3.05;1.2;;;;;;;1.63;86.96289;93971.08;;;;
2020/01/29 02:01:58;;;;;;;4.300001;1.4;;;;;;;1.67;87.53418;93974.04;;;;
2020/01/29 02:02:59;;;;;;;4.300001;1.4;;;;;;;1.67;87.53418;93974.04;;;;
2020/01/29 02:03:59;;;;;;;4.300001;1.4;;;;;;;1.67;87.53418;93974.04;;;;
2020/01/29 02:05:00;;;;;;;4.300001;1.4;;;;;;;1.67;87.53418;93974.04;;;;
2020/01/29 02:06:00;;;;;;;4.300001;1.4;;;;;;;1.67;87.53418;93974.04;;;;
2020/01/29 02:07:01;;;;;;;4.300001;1.4;;;;;;;1.67;87.53418;93974.04;;;;
2020/01/29 02:08:01;;;;;;;4.300001;1.4;;;;;;;1.67;87.53418;93974.04;;;;
2020/01/29 02:09:01;;;;;;;4.300001;1.4;;;;;;;1.67;87.53418;93974.04;;;;
2020/01/29 02:10:07;;;;;;;4.300001;1.4;;;;;;;1.67;87.53418;93974.04;;;;
2020/01/29 02:11:08;;;;;;;4.300001;1.4;;;;;;;1.67;87.53418;93974.04;;;;
2020/01/29 02:12:08;;;;;;;4.300001;1.4;;;;;;;1.67;87.53418;93974.04;;;;
2020/01/29 02:13:08;;;;;;;3;1.25;;;;;;;1.69;87.8623;93987.95;;;;
2020/01/29 02:14:09;;;;;;;3;1.25;;;;;;;1.69;87.8623;93987.95;;;;
2020/01/29 02:15:10;;;;;;;3;1.25;;;;;;;1.69;87.8623;93987.95;;;;
2020/01/29 02:16:11;;;;;;;3;1.25;;;;;;;1.69;87.8623;93987.95;;;;
2020/01/29 02:17:12;;;;;;;3;1.25;;;;;;;1.69;87.8623;93987.95;;;;
2020/01/29 02:18:12;;;;;;;3;1.25;;;;;;;1.69;87.8623;93987.95;;;;
2020/01/29 02:19:13;;;;;;;3;1.25;;;;;;;1.69;87.8623;93987.95;;;;
2020/01/29 02:20:13;;;;;;;3;1.25;;;;;;;1.69;87.8623;93987.95;;;;
2020/01/29 02:21:14;;;;;;;3;1.25;;;;;;;1.69;87.8623;93987.95;;;;
2020/01/29 02:22:14;;;;;;;3;1.25;;;;;;;1.69;87.8623;93987.95;;;;
2020/01/29 02:23:15;;;;;;;1.8;1;;;;;;;1.81;88.41992;93994.62;;;;
2020/01/29 02:24:15;;;;;;;1.8;1;;;;;;;1.81;88.41992;93994.62;;;;
2020/01/29 02:25:16;;;;;;;1.8;1;;;;;;;1.81;88.41992;93994.62;;;;
2020/01/29 02:27:02;;;;;;;1.8;1;;;;;;;1.81;88.41992;93994.62;;;;
2020/01/29 02:28:09;;;;;;;1.8;1;;;;;;;1.81;88.41992;93994.62;;;;
2020/01/29 02:29:15;;;;;;;1.8;1;;;;;;;1.81;88.41992;93994.62;;;;
2020/01/29 02:31:01;;;;;;;1.8;1;;;;;;;1.81;88.41992;93994.62;;;;
2020/01/29 02:32:03;;;;;;;1.8;1;;;;;;;1.81;88.41992;93994.62;;;;
2020/01/29 02:33:09;;;;;;;1.8;1;;;;;;;1.81;88.41992;93994.62;;;;
2020/01/29 02:34:10;;;;;;;2.45;1;;;;;;;1.91;88.79395;94009.71;;;;
2020/01/29 02:35:10;;;;;;;2.45;1;;;;;;;1.91;88.79395;94009.71;;;;
2020/01/29 02:36:11;;;;;;;2.45;1;;;;;;;1.91;88.79395;94009.71;;;;
2020/01/29 02:37:11;;;;;;;2.45;1;;;;;;;1.91;88.79395;94009.71;;;;
2020/01/29 02:38:12;;;;;;;2.45;1;;;;;;;1.91;88.79395;94009.71;;;;
2020/01/29 02:39:12;;;;;;;2.45;1;;;;;;;1.91;88.79395;94009.71;;;;
2020/01/29 02:40:12;;;;;;;2.45;1;;;;;;;1.91;88.79395;94009.71;;;;
2020/01/29 02:41:13;;;;;;;2.45;1;;;;;;;1.91;88.79395;94009.71;;;;
2020/01/29 02:42:13;;;;;;;2.45;1;;;;;;;1.91;88.79395;94009.71;;;;
2020/01/29 02:43:14;;;;;;;2.45;1;;;;;;;1.91;88.79395;94009.71;;;;
2020/01/29 02:44:14;;;;;;;2.45;1;;;;;;;1.91;88.79395;94009.71;;;;
2020/01/29 02:45:15;;;;;;;1.95;1.05;;;;;;;1.89;88.63574;93998.33;;;;
2020/01/29 02:46:31;;;;;;;1.95;1.05;;;;;;;1.89;88.63574;93998.33;;;;
2020/01/29 02:47:32;;;;;;;1.95;1.05;;;;;;;1.89;88.63574;93998.33;;;;
2020/01/29 02:48:32;;;;;;;1.95;1.05;;;;;;;1.89;88.63574;93998.33;;;;
2020/01/29 02:49:33;;;;;;;1.95;1.05;;;;;;;1.89;88.63574;93998.33;;;;
2020/01/29 02:50:33;;;;;;;1.95;1.05;;;;;;;1.89;88.63574;93998.33;;;;
2020/01/29 02:51:34;;;;;;;1.95;1.05;;;;;;;1.89;88.63574;93998.33;;;;
2020/01/29 02:52:34;;;;;;;1.95;1.05;;;;;;;1.89;88.63574;93998.33;;;;
2020/01/29 02:53:35;;;;;;;1.95;1.05;;;;;;;1.89;88.63574;93998.33;;;;
2020/01/29 02:54:35;;;;;;;1.95;1.05;;;;;;;1.89;88.63574;93998.33;;;;
2020/01/29 02:55:35;;;;;;;2.85;0.9;;;;;;;1.72;88.68164;93999.98;;;;
2020/01/29 02:56:36;;;;;;;2.85;0.9;;;;;;;1.72;88.68164;93999.98;;;;
2020/01/29 02:57:36;;;;;;;2.85;0.9;;;;;;;1.72;88.68164;93999.98;;;;
2020/01/29 02:58:37;;;;;;;2.85;0.9;;;;;;;1.72;88.68164;93999.98;;;;
2020/01/29 02:59:37;;;;;;;2.85;0.9;;;;;;;1.72;88.68164;93999.98;;;;
2020/01/29 03:00:38;;;;;;;2.85;0.9;;;;;;;1.72;88.68164;93999.98;;;;
2020/01/29 03:01:38;;;;;;;2.85;0.9;;;;;;;1.72;88.68164;93999.98;;;;
2020/01/29 03:02:41;;;;;;;2.85;0.9;;;;;;;1.72;88.68164;93999.98;;;;
2020/01/29 03:03:42;;;;;;;2.85;0.9;;;;;;;1.72;88.68164;93999.98;;;;
2020/01/29 03:04:42;;;;;;;2.85;0.9;;;;;;;1.72;88.68164;93999.98;;;;
2020/01/29 03:05:43;;;;;;;1.8;0.9;;;;;;;1.64;88.6543;94028.56;;;;
2020/01/29 03:06:43;;;;;;;1.8;0.9;;;;;;;1.64;88.6543;94028.56;;;;
2020/01/29 03:07:44;;;;;;;1.8;0.9;;;;;;;1.64;88.6543;94028.56;;;;
2020/01/29 03:08:44;;;;;;;1.8;0.9;;;;;;;1.64;88.6543;94028.56;;;;
2020/01/29 03:09:44;;;;;;;1.8;0.9;;;;;;;1.64;88.6543;94028.56;;;;
2020/01/29 03:10:45;;;;;;;1.8;0.9;;;;;;;1.64;88.6543;94028.56;;;;
2020/01/29 03:11:45;;;;;;;1.8;0.9;;;;;;;1.64;88.6543;94028.56;;;;
2020/01/29 03:12:46;;;;;;;1.8;0.9;;;;;;;1.64;88.6543;94028.56;;;;
2020/01/29 03:13:46;;;;;;;1.8;0.9;;;;;;;1.64;88.6543;94028.56;;;;
2020/01/29 03:14:47;;;;;;;1.8;0.9;;;;;;;1.64;88.6543;94028.56;;;;
2020/01/29 03:15:48;;;;;;;1.8;0.9;;;;;;;1.64;88.6543;94028.56;;;;
2020/01/29 03:16:58;;;;;;;1.2;1.1;;;;;;;1.52;89.22461;94038.65;;;;
2020/01/29 03:18:42;;;;;;;1.2;1.1;;;;;;;1.52;89.22461;94038.65;;;;
2020/01/29 03:20:02;;;;;;;1.2;1.1;;;;;;;1.52;89.22461;94038.65;;;;
2020/01/29 03:21:18;;;;;;;1.2;1.1;;;;;;;1.52;89.22461;94038.65;;;;
2020/01/29 03:22:25;;;;;;;1.2;1.1;;;;;;;1.52;89.22461;94038.65;;;;
2020/01/29 03:23:28;;;;;;;1.2;1.1;;;;;;;1.52;89.22461;94038.65;;;;
2020/01/29 03:24:29;;;;;;;1.2;1.1;;;;;;;1.52;89.22461;94038.65;;;;
2020/01/29 03:25:29;;;;;;;1.2;1.1;;;;;;;1.52;89.22461;94038.65;;;;
2020/01/29 03:26:30;;;;;;;1.2;1.1;;;;;;;1.52;89.22461;94038.65;;;;
2020/01/29 03:27:30;;;;;;;1.3;1.2;;;;;;;1.37;89.77734;94094.34;;;;
2020/01/29 03:28:31;;;;;;;1.3;1.2;;;;;;;1.37;89.77734;94094.34;;;;
2020/01/29 03:29:31;;;;;;;1.3;1.2;;;;;;;1.37;89.77734;94094.34;;;;
2020/01/29 03:30:32;;;;;;;1.3;1.2;;;;;;;1.37;89.77734;94094.34;;;;
2020/01/29 03:31:32;;;;;;;1.3;1.2;;;;;;;1.37;89.77734;94094.34;;;;
2020/01/29 03:33:06;;;;;;;1.3;1.2;;;;;;;1.37;89.77734;94094.34;;;;
2020/01/29 03:34:07;;;;;;;1.3;1.2;;;;;;;1.37;89.77734;94094.34;;;;
2020/01/29 03:35:07;;;;;;;1.3;1.2;;;;;;;1.37;89.77734;94094.34;;;;
2020/01/29 03:36:08;;;;;;;1.3;1.2;;;;;;;1.37;89.77734;94094.34;;;;
2020/01/29 03:37:08;;;;;;;1.3;1.2;;;;;;;1.37;89.77734;94094.34;;;;
2020/01/29 03:38:09;;;;;;;1.05;1;;;;;;;1.2;91.52344;94121.09;;;;
2020/01/29 03:39:09;;;;;;;1.05;1;;;;;;;1.2;91.52344;94121.09;;;;
2020/01/29 03:40:10;;;;;;;1.05;1;;;;;;;1.2;91.52344;94121.09;;;;
2020/01/29 03:41:10;;;;;;;1.05;1;;;;;;;1.2;91.52344;94121.09;;;;
2020/01/29 03:42:12;;;;;;;1.05;1;;;;;;;1.2;91.52344;94121.09;;;;
2020/01/29 03:43:13;;;;;;;1.05;1;;;;;;;1.2;91.52344;94121.09;;;;
2020/01/29 03:44:13;;;;;;;1.05;1;;;;;;;1.2;91.52344;94121.09;;;;
2020/01/29 03:45:14;;;;;;;1.05;1;;;;;;;1.2;91.52344;94121.09;;;;
2020/01/29 03:46:16;;;;;;;1.05;1;;;;;;;1.2;91.52344;94121.09;;;;
2020/01/29 03:47:18;;;;;;;1.05;1;;;;;;;1.2;91.52344;94121.09;;;;
2020/01/29 03:48:19;;;;;;;1;0.9;;;;;;;1.18;92.9248;94161.67;;;;
2020/01/29 03:49:20;;;;;;;1;0.9;;;;;;;1.18;92.9248;94161.67;;;;
2020/01/29 03:50:22;;;;;;;1;0.9;;;;;;;1.18;92.9248;94161.67;;;;
2020/01/29 03:51:23;;;;;;;1;0.9;;;;;;;1.18;92.9248;94161.67;;;;
2020/01/29 03:52:25;;;;;;;1;0.9;;;;;;;1.18;92.9248;94161.67;;;;
2020/01/29 03:53:25;;;;;;;1;0.9;;;;;;;1.18;92.9248;94161.67;;;;
2020/01/29 03:54:26;;;;;;;1;0.9;;;;;;;1.18;92.9248;94161.67;;;;
2020/01/29 03:55:26;;;;;;;1;0.9;;;;;;;1.18;92.9248;94161.67;;;;
2020/01/29 03:56:30;;;;;;;1;0.9;;;;;;;1.18;92.9248;94161.67;;;;
2020/01/29 03:57:30;;;;;;;1;0.9;;;;;;;1.18;92.9248;94161.67;;;;
2020/01/29 03:58:31;;;;;;;1;0.9;;;;;;;1.18;92.9248;94161.67;;;;
2020/01/29 03:59:32;;;;;;;1.15;1.05;;;;;;;1.16;93.41992;94169.03;;;;
2020/01/29 04:00:32;;;;;;;1.15;1.05;;;;;;;1.16;93.41992;94169.03;;;;
2020/01/29 04:01:32;;;;;;;1.15;1.05;;;;;;;1.16;93.41992;94169.03;;;;
2020/01/29 04:02:33;;;;;;;1.15;1.05;;;;;;;1.16;93.41992;94169.03;;;;
2020/01/29 04:03:33;;;;;;;1.15;1.05;;;;;;;1.16;93.41992;94169.03;;;;
2020/01/29 04:04:34;;;;;;;1.15;1.05;;;;;;;1.16;93.41992;94169.03;;;;
2020/01/29 04:05:34;;;;;;;1.15;1.05;;;;;;;1.16;93.41992;94169.03;;;;
2020/01/29 04:06:35;;;;;;;1.15;1.05;;;;;;;1.16;93.41992;94169.03;;;;
2020/01/29 04:07:36;;;;;;;1.15;1.05;;;;;;;1.16;93.41992;94169.03;;;;
2020/01/29 04:08:37;;;;;;;1.15;1.05;;;;;;;1.16;93.41992;94169.03;;;;
2020/01/29 04:09:37;;;;;;;1.15;0.95;;;;;;;1.15;94.15723;94203.3;;;;
2020/01/29 04:10:38;;;;;;;1.15;0.95;;;;;;;1.15;94.15723;94203.3;;;;
2020/01/29 04:11:38;;;;;;;1.15;0.95;;;;;;;1.15;94.15723;94203.3;;;;
2020/01/29 04:12:39;;;;;;;1.15;0.95;;;;;;;1.15;94.15723;94203.3;;;;
2020/01/29 04:13:54;;;;;;;1.15;0.95;;;;;;;1.15;94.15723;94203.3;;;;
2020/01/29 04:14:56;;;;;;;1.15;0.95;;;;;;;1.15;94.15723;94203.3;;;;
2020/01/29 04:15:57;;;;;;;1.15;0.95;;;;;;;1.15;94.15723;94203.3;;;;
2020/01/29 04:17:03;;;;;;;1.15;0.95;;;;;;;1.15;94.15723;94203.3;;;;
2020/01/29 04:18:04;;;;;;;1.15;0.95;;;;;;;1.15;94.15723;94203.3;;;;
2020/01/29 04:19:09;;;;;;;1.15;0.95;;;;;;;1.15;94.15723;94203.3;;;;
2020/01/29 04:20:14;;;;;;;1.9;1.2;;;;;;;1.19;94.37402;94228.83;;;;
2020/01/29 04:22:25;;;;;;;1.9;1.2;;;;;;;1.19;94.37402;94228.83;;;;
2020/01/29 04:23:25;;;;;;;1.9;1.2;;;;;;;1.19;94.37402;94228.83;;;;
2020/01/29 04:24:28;;;;;;;1.9;1.2;;;;;;;1.19;94.37402;94228.83;;;;
2020/01/29 04:25:31;;;;;;;1.9;1.2;;;;;;;1.19;94.37402;94228.83;;;;
2020/01/29 04:26:33;;;;;;;1.9;1.2;;;;;;;1.19;94.37402;94228.83;;;;
2020/01/29 04:27:33;;;;;;;1.9;1.2;;;;;;;1.19;94.37402;94228.83;;;;
2020/01/29 04:28:34;;;;;;;1.9;1.2;;;;;;;1.19;94.37402;94228.83;;;;
2020/01/29 04:29:34;;;;;;;1.9;1.2;;;;;;;1.19;94.37402;94228.83;;;;
2020/01/29 04:30:35;;;;;;;1.3;0.9;;;;;;;1.24;94.93555;94254.41;;;;
2020/01/29 04:31:35;;;;;;;1.3;0.9;;;;;;;1.24;94.93555;94254.41;;;;
2020/01/29 04:32:36;;;;;;;1.3;0.9;;;;;;;1.24;94.93555;94254.41;;;;
2020/01/29 04:33:36;;;;;;;1.3;0.9;;;;;;;1.24;94.93555;94254.41;;;;
2020/01/29 04:34:37;;;;;;;1.3;0.9;;;;;;;1.24;94.93555;94254.41;;;;
2020/01/29 04:35:37;;;;;;;1.3;0.9;;;;;;;1.24;94.93555;94254.41;;;;
2020/01/29 04:36:38;;;;;;;1.3;0.9;;;;;;;1.24;94.93555;94254.41;;;;
2020/01/29 04:37:40;;;;;;;1.3;0.9;;;;;;;1.24;94.93555;94254.41;;;;
2020/01/29 04:38:40;;;;;;;1.3;0.9;;;;;;;1.24;94.93555;94254.41;;;;
2020/01/29 04:39:40;;;;;;;1.3;0.9;;;;;;;1.24;94.93555;94254.41;;;;
2020/01/29 04:40:41;;;;;;;1.3;0.9;;;;;;;1.24;94.93555;94254.41;;;;
2020/01/29 04:41:42;;;;;;;0.9;0.9;;;;;;;1.35;94.64844;94275.48;;;;
2020/01/29 04:42:42;;;;;;;0.9;0.9;;;;;;;1.35;94.64844;94275.48;;;;
2020/01/29 04:43:43;;;;;;;0.9;0.9;;;;;;;1.35;94.64844;94275.48;;;;
2020/01/29 04:44:43;;;;;;;0.9;0.9;;;;;;;1.35;94.64844;94275.48;;;;
2020/01/29 04:45:44;;;;;;;0.9;0.9;;;;;;;1.35;94.64844;94275.48;;;;
2020/01/29 04:46:44;;;;;;;0.9;0.9;;;;;;;1.35;94.64844;94275.48;;;;
2020/01/29 04:47:45;;;;;;;0.9;0.9;;;;;;;1.35;94.64844;94275.48;;;;
2020/01/29 04:48:45;;;;;;;0.9;0.9;;;;;;;1.35;94.64844;94275.48;;;;
2020/01/29 04:49:46;;;;;;;0.9;0.9;;;;;;;1.35;94.64844;94275.48;;;;
2020/01/29 04:50:46;;;;;;;0.9;0.9;;;;;;;1.35;94.64844;94275.48;;;;
2020/01/29 04:51:47;;;;;;;1.15;1;;;;;;;1.52;94.4668;94297.97;;;;
2020/01/29 04:52:48;;;;;;;1.15;1;;;;;;;1.52;94.4668;94297.97;;;;
2020/01/29 04:53:49;;;;;;;1.15;1;;;;;;;1.52;94.4668;94297.97;;;;
2020/01/29 04:54:49;;;;;;;1.15;1;;;;;;;1.52;94.4668;94297.97;;;;
2020/01/29 04:55:49;;;;;;;1.15;1;;;;;;;1.52;94.4668;94297.97;;;;
2020/01/29 04:56:50;;;;;;;1.15;1;;;;;;;1.52;94.4668;94297.97;;;;
2020/01/29 04:57:51;;;;;;;1.15;1;;;;;;;1.52;94.4668;94297.97;;;;
2020/01/29 04:58:51;;;;;;;1.15;1;;;;;;;1.52;94.4668;94297.97;;;;
2020/01/29 04:59:52;;;;;;;1.15;1;;;;;;;1.52;94.4668;94297.97;;;;
2020/01/29 05:00:52;;;;;;;1.15;1;;;;;;;1.52;94.4668;94297.97;;;;
2020/01/29 05:01:53;;;;;;;1.15;1;;;;;;;1.52;94.4668;94297.97;;;;
2020/01/29 05:02:53;;;;;;;1.85;1.1;;;;;;;1.59;94.4707;94297.45;;;;
2020/01/29 05:03:54;;;;;;;1.85;1.1;;;;;;;1.59;94.4707;94297.45;;;;
2020/01/29 05:04:54;;;;;;;1.85;1.1;;;;;;;1.59;94.4707;94297.45;;;;
2020/01/29 05:05:54;;;;;;;1.85;1.1;;;;;;;1.59;94.4707;94297.45;;;;
2020/01/29 05:06:55;;;;;;;1.85;1.1;;;;;;;1.59;94.4707;94297.45;;;;
2020/01/29 05:07:55;;;;;;;1.85;1.1;;;;;;;1.59;94.4707;94297.45;;;;
2020/01/29 05:08:56;;;;;;;1.85;1.1;;;;;;;1.59;94.4707;94297.45;;;;
2020/01/29 05:09:59;;;;;;;1.85;1.1;;;;;;;1.59;94.4707;94297.45;;;;
2020/01/29 05:10:59;;;;;;;1.85;1.1;;;;;;;1.59;94.4707;94297.45;;;;
2020/01/29 05:12:00;;;;;;;1.85;1.1;;;;;;;1.59;94.4707;94297.45;;;;
2020/01/29 05:13:00;;;;;;;2.7;1.25;;;;;;;1.68;94.49219;94307.28;;;;
2020/01/29 05:14:01;;;;;;;2.7;1.25;;;;;;;1.68;94.49219;94307.28;;;;
2020/01/29 05:15:01;;;;;;;2.7;1.25;;;;;;;1.68;94.49219;94307.28;;;;
2020/01/29 05:16:02;;;;;;;2.7;1.25;;;;;;;1.68;94.49219;94307.28;;;;
2020/01/29 05:17:02;;;;;;;2.7;1.25;;;;;;;1.68;94.49219;94307.28;;;;
2020/01/29 05:18:03;;;;;;;2.7;1.25;;;;;;;1.68;94.49219;94307.28;;;;
2020/01/29 05:19:03;;;;;;;2.7;1.25;;;;;;;1.68;94.49219;94307.28;;;;
2020/01/29 05:20:04;;;;;;;2.7;1.25;;;;;;;1.68;94.49219;94307.28;;;;
2020/01/29 05:21:04;;;;;;;2.7;1.25;;;;;;;1.68;94.49219;94307.28;;;;
2020/01/29 05:22:05;;;;;;;2.7;1.25;;;;;;;1.68;94.49219;94307.28;;;;
2020/01/29 05:23:05;;;;;;;2.7;1.25;;;;;;;1.68;94.49219;94307.28;;;;
2020/01/29 05:24:06;;;;;;;2.15;0.9;;;;;;;1.64;94.18945;94325.16;;;;
2020/01/29 05:25:06;;;;;;;2.15;0.9;;;;;;;1.64;94.18945;94325.16;;;;
2020/01/29 05:26:07;;;;;;;2.15;0.9;;;;;;;1.64;94.18945;94325.16;;;;
2020/01/29 05:27:07;;;;;;;2.15;0.9;;;;;;;1.64;94.18945;94325.16;;;;
2020/01/29 05:28:07;;;;;;;2.15;0.9;;;;;;;1.64;94.18945;94325.16;;;;
2020/01/29 05:29:08;;;;;;;2.15;0.9;;;;;;;1.64;94.18945;94325.16;;;;
2020/01/29 05:30:08;;;;;;;2.15;0.9;;;;;;;1.64;94.18945;94325.16;;;;
2020/01/29 05:31:09;;;;;;;2.15;0.9;;;;;;;1.64;94.18945;94325.16;;;;
2020/01/29 05:32:09;;;;;;;2.15;0.9;;;;;;;1.64;94.18945;94325.16;;;;
2020/01/29 05:33:10;;;;;;;2.15;0.9;;;;;;;1.64;94.18945;94325.16;;;;
2020/01/29 05:34:10;;;;;;;1.8;1.2;;;;;;;1.47;94.38379;94349.22;;;;
2020/01/29 05:35:11;;;;;;;1.8;1.2;;;;;;;1.47;94.38379;94349.22;;;;
2020/01/29 05:36:11;;;;;;;1.8;1.2;;;;;;;1.47;94.38379;94349.22;;;;
2020/01/29 05:37:11;;;;;;;1.8;1.2;;;;;;;1.47;94.38379;94349.22;;;;
2020/01/29 05:38:12;;;;;;;1.8;1.2;;;;;;;1.47;94.38379;94349.22;;;;
2020/01/29 05:39:13;;;;;;;1.8;1.2;;;;;;;1.47;94.38379;94349.22;;;;
2020/01/29 05:40:13;;;;;;;1.8;1.2;;;;;;;1.47;94.38379;94349.22;;;;
2020/01/29 05:41:13;;;;;;;1.8;1.2;;;;;;;1.47;94.38379;94349.22;;;;
2020/01/29 05:42:14;;;;;;;1.8;1.2;;;;;;;1.47;94.38379;94349.22;;;;
2020/01/29 05:43:14;;;;;;;1.8;1.2;;;;;;;1.47;94.38379;94349.22;;;;
2020/01/29 05:44:15;;;;;;;1.8;1.2;;;;;;;1.47;94.38379;94349.22;;;;
2020/01/29 05:45:15;;;;;;;2.55;1.3;;;;;;;1.19;94.57129;94363.58;;;;
2020/01/29 05:46:16;;;;;;;2.55;1.3;;;;;;;1.19;94.57129;94363.58;;;;
2020/01/29 05:47:16;;;;;;;2.55;1.3;;;;;;;1.19;94.57129;94363.58;;;;
2020/01/29 05:48:17;;;;;;;2.55;1.3;;;;;;;1.19;94.57129;94363.58;;;;
2020/01/29 05:49:17;;;;;;;2.55;1.3;;;;;;;1.19;94.57129;94363.58;;;;
2020/01/29 05:50:18;;;;;;;2.55;1.3;;;;;;;1.19;94.57129;94363.58;;;;
2020/01/29 05:51:18;;;;;;;2.55;1.3;;;;;;;1.19;94.57129;94363.58;;;;
2020/01/29 05:52:19;;;;;;;2.55;1.3;;;;;;;1.19;94.57129;94363.58;;;;
2020/01/29 05:53:19;;;;;;;2.55;1.3;;;;;;;1.19;94.57129;94363.58;;;;
2020/01/29 05:54:19;;;;;;;2.55;1.3;;;;;;;1.19;94.57129;94363.58;;;;
2020/01/29 05:55:20;;;;;;;1.6;1.05;;;;;;;0.97;95.38672;94405.95;;;;
2020/01/29 05:56:20;;;;;;;1.6;1.05;;;;;;;0.97;95.38672;94405.95;;;;
2020/01/29 05:57:21;;;;;;;1.6;1.05;;;;;;;0.97;95.38672;94405.95;;;;
2020/01/29 05:58:21;;;;;;;1.6;1.05;;;;;;;0.97;95.38672;94405.95;;;;
2020/01/29 05:59:21;;;;;;;1.6;1.05;;;;;;;0.97;95.38672;94405.95;;;;
2020/01/29 06:00:22;;;;;;;1.6;1.05;;;;;;;0.97;95.38672;94405.95;;;;
2020/01/29 06:01:22;;;;;;;1.6;1.05;;;;;;;0.97;95.38672;94405.95;;;;
2020/01/29 06:02:23;;;;;;;1.6;1.05;;;;;;;0.97;95.38672;94405.95;;;;
2020/01/29 06:03:23;;;;;;;1.6;1.05;;;;;;;0.97;95.38672;94405.95;;;;
2020/01/29 06:04:24;;;;;;;1.6;1.05;;;;;;;0.97;95.38672;94405.95;;;;